Time;durP1;ratioP1;P1;durP2;ratioP2;P2;SDS_P1;SDS_P2;PMS_P1;PMS_P2;Temp;Humidity;BMP_temperature;BMP_pressure;BME280_temperature;BME280_humidity;BME280_pressure;Samples;Min_cycle;Max_cycle;Signal;HPM_P1;HPM_P2
2022/04/16 00:01:57;;;;;;;0.47;0.47;;;4.00;99.90;;;;;;5086012;28;20235;-61
2022/04/16 00:04:23;;;;;;;0.10;0.10;;;3.90;99.90;;;;;;5084135;28;20225;-61
2022/04/16 00:06:48;;;;;;;0.20;0.20;;;3.90;99.90;;;;;;5076928;28;20209;-61
2022/04/16 00:09:14;;;;;;;0.20;0.20;;;3.80;99.90;;;;;;5083773;28;20193;-67
2022/04/16 00:11:39;;;;;;;0.10;0.10;;;3.80;99.90;;;;;;5085699;28;20193;-64
2022/04/16 00:14:05;;;;;;;0.87;0.87;;;3.90;99.90;;;;;;5083796;28;20269;-66
2022/04/16 00:16:32;;;;;;;0.20;0.20;;;3.90;99.90;;;;;;5085162;28;20656;-64
2022/04/16 00:18:57;;;;;;;0.20;0.20;;;3.80;99.90;;;;;;5084186;28;20225;-65
2022/04/16 00:21:24;;;;;;;0.17;0.17;;;3.80;99.90;;;;;;5085878;28;20224;-63
2022/04/16 00:23:51;;;;;;;0.10;0.10;;;3.70;99.90;;;;;;5084026;28;20709;-60
2022/04/16 00:26:17;;;;;;;0.10;0.10;;;3.70;99.90;;;;;;5084816;28;20229;-61
2022/04/16 00:28:43;;;;;;;0.10;0.10;;;3.60;99.90;;;;;;5083525;28;20273;-60
2022/04/16 00:31:08;;;;;;;0.10;0.10;;;3.50;99.90;;;;;;5085434;28;20554;-63
2022/04/16 00:33:34;;;;;;;0.20;0.20;;;3.40;99.90;;;;;;5084058;28;20679;-60
2022/04/16 00:36:01;;;;;;;0.20;0.20;;;3.50;99.90;;;;;;5085361;28;20205;-60
2022/04/16 00:38:26;;;;;;;0.20;0.20;;;3.60;99.90;;;;;;5083456;28;20213;-60
2022/04/16 00:40:52;;;;;;;0.20;0.20;;;3.60;99.90;;;;;;5074213;28;20204;-64
2022/04/16 00:43:25;;;;;;;0.10;0.10;;;3.60;99.90;;;;;;5082887;28;20217;-59
2022/04/16 00:45:52;;;;;;;0.10;0.10;;;3.70;99.90;;;;;;5078363;28;20208;-61
2022/04/16 00:48:22;;;;;;;0.10;0.10;;;3.70;99.90;;;;;;5083615;28;20323;-61
2022/04/16 00:50:53;;;;;;;0.23;0.23;;;3.60;99.90;;;;;;5066601;28;20189;-62
2022/04/16 00:53:19;;;;;;;0.30;0.30;;;3.60;99.90;;;;;;5077578;28;20216;-62
2022/04/16 00:55:45;;;;;;;0.20;0.20;;;3.60;99.90;;;;;;5089294;28;20280;-60
2022/04/16 00:58:11;;;;;;;0.10;0.10;;;3.70;99.90;;;;;;5087201;28;20296;-60
2022/04/16 01:00:36;;;;;;;0.10;0.10;;;3.60;99.90;;;;;;5089039;28;20201;-59
2022/04/16 01:03:03;;;;;;;0.10;0.10;;;3.50;99.90;;;;;;5086952;28;20351;-60
2022/04/16 01:05:29;;;;;;;0.60;0.60;;;3.60;99.90;;;;;;5089333;28;20202;-58
2022/04/16 01:07:59;;;;;;;0.17;0.17;;;3.50;99.90;;;;;;5086846;28;20202;-59
2022/04/16 01:10:27;;;;;;;0.50;0.50;;;3.30;99.90;;;;;;5089373;28;20339;-59
2022/04/16 01:12:54;;;;;;;0.20;0.20;;;3.30;99.90;;;;;;5087313;28;20755;-59
2022/04/16 01:15:20;;;;;;;0.20;0.20;;;3.40;99.90;;;;;;5089225;28;20186;-59
2022/04/16 01:17:47;;;;;;;0.10;0.10;;;3.40;99.90;;;;;;5086879;28;20225;-59
2022/04/16 01:20:14;;;;;;;0.10;0.10;;;3.30;99.90;;;;;;5088830;28;20189;-60
2022/04/16 01:22:40;;;;;;;0.43;0.43;;;3.20;99.90;;;;;;5086895;28;20292;-58
2022/04/16 01:25:07;;;;;;;0.20;0.20;;;3.20;99.90;;;;;;5070144;28;20209;-59
2022/04/16 01:27:35;;;;;;;0.10;0.10;;;3.20;99.90;;;;;;5068345;28;20232;-59
2022/04/16 01:30:03;;;;;;;0.10;0.10;;;3.20;99.90;;;;;;5089016;28;20190;-59
2022/04/16 01:32:29;;;;;;;0.20;0.20;;;3.00;99.90;;;;;;5086389;28;20544;-57
2022/04/16 01:34:55;;;;;;;0.10;0.10;;;3.10;99.90;;;;;;5088757;28;20181;-60
2022/04/16 01:37:23;;;;;;;0.10;0.10;;;3.00;99.90;;;;;;5079745;28;20200;-61
2022/04/16 01:39:48;;;;;;;0.10;0.10;;;3.00;99.90;;;;;;5088703;28;20660;-60
2022/04/16 01:42:14;;;;;;;0.10;0.10;;;3.00;99.90;;;;;;5086514;28;20196;-60
2022/04/16 01:44:42;;;;;;;0.10;0.10;;;3.10;99.90;;;;;;5088742;28;20557;-60
2022/04/16 01:47:10;;;;;;;0.20;0.20;;;3.10;99.90;;;;;;5088617;28;20189;-60
2022/04/16 01:49:36;;;;;;;0.10;0.10;;;3.00;99.90;;;;;;5087596;28;20213;-60
2022/04/16 01:52:02;;;;;;;0.60;0.60;;;2.90;99.90;;;;;;5088183;28;20196;-58
2022/04/16 01:54:27;;;;;;;3.93;1.43;;;2.90;99.90;;;;;;5086403;28;20207;-59
2022/04/16 01:56:53;;;;;;;0.10;0.10;;;2.90;99.90;;;;;;5087939;28;20608;-59
2022/04/16 01:59:19;;;;;;;0.10;0.10;;;2.80;99.90;;;;;;5086191;28;20205;-59
2022/04/16 02:01:45;;;;;;;0.20;0.20;;;2.90;99.90;;;;;;5088001;28;20196;-60
2022/04/16 02:04:10;;;;;;;0.20;0.20;;;2.90;99.90;;;;;;5085702;28;20206;-61
2022/04/16 02:06:36;;;;;;;0.20;0.20;;;2.90;99.90;;;;;;5087568;28;20671;-60
2022/04/16 02:09:02;;;;;;;0.10;0.10;;;2.90;99.90;;;;;;5085715;28;20200;-60
2022/04/16 02:11:28;;;;;;;0.20;0.20;;;2.80;99.90;;;;;;5087953;28;20278;-59
2022/04/16 02:13:54;;;;;;;0.10;0.10;;;2.80;99.90;;;;;;5086096;28;20203;-60
2022/04/16 02:16:19;;;;;;;0.10;0.10;;;2.80;99.90;;;;;;5087198;28;20201;-60
2022/04/16 02:18:45;;;;;;;0.10;0.10;;;2.70;99.90;;;;;;5085952;28;20200;-60
2022/04/16 02:21:10;;;;;;;0.20;0.20;;;2.70;99.90;;;;;;5087454;28;20534;-60
2022/04/16 02:23:36;;;;;;;0.10;0.10;;;2.80;99.90;;;;;;5085791;28;20205;-60
2022/04/16 02:26:06;;;;;;;0.10;0.10;;;2.70;99.90;;;;;;5086860;28;20271;-59
2022/04/16 02:28:32;;;;;;;0.10;0.10;;;2.60;99.90;;;;;;5085764;28;20261;-60
2022/04/16 02:30:57;;;;;;;0.10;0.10;;;2.70;99.90;;;;;;5087958;28;20651;-59
2022/04/16 02:33:23;;;;;;;0.23;0.23;;;2.70;99.90;;;;;;5085977;28;20668;-59
2022/04/16 02:35:48;;;;;;;0.10;0.10;;;2.60;99.90;;;;;;5087563;28;20205;-60
2022/04/16 02:38:14;;;;;;;0.20;0.20;;;2.50;99.90;;;;;;5084849;28;20205;-60
2022/04/16 02:40:39;;;;;;;0.10;0.10;;;2.60;99.90;;;;;;5087370;28;20208;-60
2022/04/16 02:43:05;;;;;;;0.20;0.20;;;2.60;99.90;;;;;;5085247;28;20204;-61
2022/04/16 02:48:15;;;;;;;0.60;0.60;;;2.50;99.90;;;;;;5081185;28;20315;-60
2022/04/16 02:50:41;;;;;;;0.20;0.20;;;2.50;99.90;;;;;;5086948;28;20185;-60
2022/04/16 02:53:07;;;;;;;0.10;0.10;;;2.50;99.90;;;;;;5066609;28;20246;-59
2022/04/16 02:55:32;;;;;;;0.10;0.10;;;2.50;99.90;;;;;;5086908;28;20197;-60
2022/04/16 02:57:58;;;;;;;0.20;0.20;;;2.50;99.90;;;;;;5066168;28;20205;-60
2022/04/16 03:00:26;;;;;;;1.20;1.20;;;2.40;99.90;;;;;;5086963;28;20193;-62
2022/04/16 03:02:52;;;;;;;0.37;0.37;;;2.50;99.90;;;;;;5085041;28;20303;-60
2022/04/16 03:05:18;;;;;;;0.10;0.10;;;2.50;99.90;;;;;;5086748;28;20552;-60
2022/04/16 03:07:44;;;;;;;0.20;0.20;;;2.60;99.90;;;;;;5084799;28;20263;-60
2022/04/16 03:10:10;;;;;;;0.43;0.43;;;2.70;99.90;;;;;;5086668;28;20643;-61
2022/04/16 03:12:45;;;;;;;0.20;0.20;;;2.80;99.90;;;;;;5082368;28;20251;-60
2022/04/16 03:17:55;;;;;;;0.10;0.10;;;2.80;99.90;;;;;;5084950;28;20212;-60
2022/04/16 03:20:20;;;;;;;0.10;0.10;;;2.60;99.90;;;;;;5086431;28;20189;-59
2022/04/16 03:22:46;;;;;;;0.67;0.67;;;2.60;99.90;;;;;;5084820;28;20209;-60
2022/04/16 03:25:11;;;;;;;0.10;0.10;;;2.70;99.90;;;;;;5086082;28;20694;-60
2022/04/16 03:27:37;;;;;;;0.10;0.10;;;2.70;99.90;;;;;;5084410;28;20300;-60
2022/04/16 03:30:04;;;;;;;0.50;0.50;;;2.70;99.90;;;;;;5086164;28;20189;-60
2022/04/16 03:32:30;;;;;;;0.10;0.10;;;2.70;99.90;;;;;;5078350;28;20744;-60
2022/04/16 03:34:56;;;;;;;0.20;0.20;;;2.70;99.90;;;;;;5086799;28;20251;-60
2022/04/16 03:37:24;;;;;;;0.20;0.20;;;2.80;99.90;;;;;;5084287;28;20687;-60
2022/04/16 03:39:50;;;;;;;0.20;0.20;;;2.80;99.90;;;;;;5086191;28;20557;-60
2022/04/16 03:42:18;;;;;;;0.40;0.40;;;2.90;99.90;;;;;;5084177;28;20192;-60
2022/04/16 03:44:43;;;;;;;0.20;0.20;;;2.90;99.90;;;;;;5086318;28;20696;-60
2022/04/16 03:47:10;;;;;;;0.10;0.10;;;2.80;99.90;;;;;;5083882;28;20228;-59
2022/04/16 03:49:36;;;;;;;0.10;0.10;;;2.90;99.90;;;;;;5086118;28;20645;-65
2022/04/16 03:52:02;;;;;;;0.10;0.10;;;2.90;99.90;;;;;;5083842;28;20211;-60
2022/04/16 04:00:05;;;;;;;4.43;2.07;;;3.00;99.90;;;;;;5085705;28;20268;-61
2022/04/16 04:02:33;;;;;;;3.73;1.87;;;2.90;99.90;;;;;;5070694;28;20208;-61
2022/04/16 04:04:59;;;;;;;6.07;2.30;;;3.10;99.90;;;;;;5086007;28;20181;-61
2022/04/16 04:07:25;;;;;;;5.07;2.60;;;3.10;99.90;;;;;;5083497;28;20197;-60
2022/04/16 04:09:51;;;;;;;3.10;1.93;;;3.00;99.90;;;;;;5085765;28;20181;-60
2022/04/16 04:12:17;;;;;;;3.37;2.00;;;3.10;99.90;;;;;;5083457;28;20200;-60
2022/04/16 04:14:44;;;;;;;4.27;2.20;;;3.20;99.90;;;;;;5085804;28;20719;-61
2022/04/16 04:17:10;;;;;;;2.63;1.70;;;3.10;99.90;;;;;;5083134;28;20197;-62
2022/04/16 04:19:44;;;;;;;2.13;1.57;;;3.10;99.90;;;;;;5085391;28;20197;-62
2022/04/16 04:22:12;;;;;;;5.80;2.13;;;3.00;99.90;;;;;;5067781;28;20197;-62
2022/04/16 04:24:38;;;;;;;6.23;2.43;;;3.10;99.90;;;;;;5085847;28;20289;-61
2022/04/16 04:27:05;;;;;;;4.37;2.30;;;3.10;99.90;;;;;;5075760;28;20224;-61
2022/04/16 04:29:30;;;;;;;3.97;2.13;;;3.00;99.90;;;;;;5084030;28;20335;-61
2022/04/16 04:31:56;;;;;;;7.43;2.47;;;2.90;99.90;;;;;;5085066;28;20283;-60
2022/04/16 04:34:22;;;;;;;2.47;1.87;;;3.00;99.90;;;;;;5083489;28;20197;-62
2022/04/16 04:36:47;;;;;;;5.10;2.70;;;3.00;99.90;;;;;;5083866;28;20202;-61
2022/04/16 04:39:13;;;;;;;3.37;2.13;;;3.00;99.90;;;;;;5083771;28;20292;-61
2022/04/16 04:41:42;;;;;;;2.67;2.17;;;3.10;99.90;;;;;;5084836;28;20254;-61
2022/04/16 04:44:11;;;;;;;3.57;1.93;;;3.00;99.90;;;;;;5081668;28;20259;-61
2022/04/16 04:46:37;;;;;;;4.67;2.47;;;3.10;99.90;;;;;;5080974;28;20271;-61
2022/04/16 04:49:03;;;;;;;3.50;2.20;;;3.10;99.90;;;;;;5085214;28;20193;-61
2022/04/16 04:51:28;;;;;;;1.73;1.63;;;3.20;99.90;;;;;;5083442;28;20207;-60
2022/04/16 04:53:54;;;;;;;3.70;2.00;;;3.30;99.90;;;;;;5085062;28;20280;-61
2022/04/16 04:56:19;;;;;;;3.30;2.13;;;3.20;99.90;;;;;;5082861;28;20620;-61
2022/04/16 04:58:44;;;;;;;3.80;2.27;;;3.20;99.90;;;;;;5084953;28;20263;-60
2022/04/16 05:01:10;;;;;;;3.40;2.20;;;3.30;99.90;;;;;;5083304;28;20810;-59
2022/04/16 05:03:35;;;;;;;4.17;2.97;;;3.30;99.90;;;;;;5085202;28;20336;-60
2022/04/16 05:06:01;;;;;;;3.00;2.00;;;3.40;99.90;;;;;;5082923;28;20417;-60
2022/04/16 05:08:27;;;;;;;5.93;2.80;;;3.50;99.90;;;;;;5085075;28;20204;-60
2022/04/16 05:10:52;;;;;;;3.73;1.80;;;3.50;99.90;;;;;;5072901;28;20209;-60
2022/04/16 05:13:17;;;;;;;4.47;2.23;;;3.50;99.90;;;;;;5084972;28;20181;-60
2022/04/16 05:15:43;;;;;;;2.50;2.20;;;3.50;99.90;;;;;;5071722;28;20741;-60
2022/04/16 05:18:08;;;;;;;7.87;2.87;;;3.50;99.90;;;;;;5084537;28;20197;-60
2022/04/16 05:20:34;;;;;;;5.80;2.80;;;3.60;99.90;;;;;;5083143;28;20197;-60
2022/04/16 05:22:59;;;;;;;2.40;2.20;;;3.70;99.90;;;;;;5085044;28;20282;-60
2022/04/16 05:25:25;;;;;;;5.57;2.30;;;3.80;99.90;;;;;;5082434;28;20626;-60
2022/04/16 05:27:50;;;;;;;4.13;2.27;;;3.70;99.90;;;;;;5085005;28;20552;-60
2022/04/16 05:30:38;;;;;;;3.83;2.27;;;3.70;99.90;;;;;;5082793;28;20198;-60
2022/04/16 05:33:16;;;;;;;4.43;1.97;;;3.80;99.90;;;;;;5084779;28;20189;-60
2022/04/16 05:35:41;;;;;;;3.27;1.80;;;4.00;99.90;;;;;;5078269;28;20720;-60
2022/04/16 05:38:07;;;;;;;3.20;2.57;;;4.10;99.90;;;;;;5084677;28;20190;-61
2022/04/16 05:40:32;;;;;;;3.33;2.20;;;4.20;99.90;;;;;;5086470;28;20679;-60
2022/04/16 05:42:58;;;;;;;2.40;2.20;;;4.30;99.90;;;;;;5088789;28;20190;-60
2022/04/16 05:45:23;;;;;;;3.83;2.17;;;4.30;99.90;;;;;;5086230;28;20267;-61
2022/04/16 05:47:49;;;;;;;7.10;3.00;;;4.50;99.90;;;;;;5088284;28;20185;-60
2022/04/16 05:50:14;;;;;;;4.40;2.43;;;4.60;99.90;;;;;;5086210;28;20217;-61
2022/04/16 05:52:40;;;;;;;2.23;2.03;;;4.70;99.90;;;;;;5088604;28;20658;-60
2022/04/16 05:55:07;;;;;;;4.30;1.90;;;4.70;99.90;;;;;;5086349;28;20263;-61
2022/04/16 05:57:32;;;;;;;4.10;2.10;;;4.80;99.90;;;;;;5088614;28;20188;-60
2022/04/16 05:59:59;;;;;;;2.77;2.13;;;4.80;99.90;;;;;;5086321;28;20558;-60
2022/04/16 06:02:25;;;;;;;3.93;2.00;;;4.90;99.90;;;;;;5088423;28;20189;-60
2022/04/16 06:04:50;;;;;;;4.53;2.53;;;5.00;99.90;;;;;;5086339;28;20274;-60
2022/04/16 06:07:16;;;;;;;4.37;2.30;;;5.00;99.90;;;;;;5088674;28;20188;-59
2022/04/16 06:09:41;;;;;;;6.17;2.27;;;5.10;99.90;;;;;;5088468;28;20612;-59
2022/04/16 06:12:09;;;;;;;4.53;2.40;;;5.20;99.90;;;;;;5086052;28;20220;-60
2022/04/16 06:14:35;;;;;;;6.17;2.77;;;5.10;99.90;;;;;;5078741;28;20542;-59
2022/04/16 06:17:00;;;;;;;4.17;2.77;;;5.20;99.90;;;;;;5085763;28;20204;-59
2022/04/16 06:19:26;;;;;;;6.97;2.87;;;5.20;99.90;;;;;;5081915;28;20194;-59
2022/04/16 06:21:51;;;;;;;2.70;2.30;;;5.20;99.90;;;;;;5084241;28;20201;-59
2022/04/16 06:24:17;;;;;;;4.53;2.30;;;5.30;99.90;;;;;;5088042;28;20189;-60
2022/04/16 06:26:45;;;;;;;3.77;2.47;;;5.50;99.90;;;;;;5082382;28;20711;-59
2022/04/16 06:29:10;;;;;;;5.13;2.20;;;5.50;99.90;;;;;;5087499;28;20197;-60
2022/04/16 06:31:36;;;;;;;2.97;2.20;;;5.50;99.90;;;;;;5085714;28;20243;-59
2022/04/16 06:34:01;;;;;;;4.90;3.10;;;5.50;99.90;;;;;;5087505;28;20721;-59
2022/04/16 06:36:27;;;;;;;4.60;2.30;;;5.50;99.90;;;;;;5085945;28;20236;-60
2022/04/16 06:38:52;;;;;;;3.63;1.90;;;5.50;99.90;;;;;;5087603;28;20200;-61
2022/04/16 06:41:18;;;;;;;5.60;2.20;;;5.60;99.90;;;;;;5085516;28;20564;-61
2022/04/16 06:43:43;;;;;;;2.20;1.87;;;5.60;99.90;;;;;;5087285;28;20237;-61
2022/04/16 06:46:09;;;;;;;2.93;1.90;;;5.70;99.90;;;;;;5085591;28;20262;-59
2022/04/16 06:48:34;;;;;;;2.33;2.13;;;5.70;99.90;;;;;;5087165;28;20224;-65
2022/04/16 06:51:00;;;;;;;3.17;1.67;;;5.60;99.90;;;;;;5084318;28;20672;-61
2022/04/16 06:53:27;;;;;;;3.20;2.07;;;5.70;99.90;;;;;;5086959;28;20189;-61
2022/04/16 06:55:52;;;;;;;2.63;1.70;;;5.70;99.90;;;;;;5085096;28;20229;-60
2022/04/16 06:58:17;;;;;;;6.40;1.83;;;5.90;99.90;;;;;;5087153;28;20232;-61
2022/04/16 07:00:43;;;;;;;3.47;1.97;;;5.90;99.90;;;;;;5084860;28;20261;-60
2022/04/16 07:03:08;;;;;;;3.83;1.90;;;5.80;99.90;;;;;;5087130;28;20243;-61
2022/04/16 07:05:34;;;;;;;2.17;1.77;;;5.80;99.90;;;;;;5085119;28;20643;-61
2022/04/16 07:07:59;;;;;;;5.87;1.83;;;5.80;99.90;;;;;;5086995;28;20190;-61
2022/04/16 07:10:25;;;;;;;2.87;1.83;;;5.70;99.90;;;;;;5084692;28;20280;-62
2022/04/16 07:12:50;;;;;;;4.73;1.97;;;5.80;99.90;;;;;;5087244;28;20576;-61
2022/04/16 07:15:16;;;;;;;2.93;2.37;;;5.90;99.90;;;;;;5073161;28;20204;-61
2022/04/16 07:17:41;;;;;;;1.93;1.47;;;6.00;99.90;;;;;;5086361;28;20227;-61
2022/04/16 07:20:07;;;;;;;3.27;2.03;;;5.90;99.90;;;;;;5076199;28;20189;-61
2022/04/16 07:22:34;;;;;;;3.90;2.00;;;5.90;99.90;;;;;;5086899;28;20193;-60
2022/04/16 07:25:00;;;;;;;2.20;1.97;;;6.00;99.90;;;;;;5084619;28;20280;-60
2022/04/16 07:27:25;;;;;;;6.07;2.23;;;6.30;99.90;;;;;;5086561;28;20324;-60
2022/04/16 07:29:58;;;;;;;2.40;2.20;;;6.40;99.90;;;;;;5084413;28;20437;-61
2022/04/16 07:32:24;;;;;;;3.67;2.20;;;6.50;99.90;;;;;;5086605;28;20186;-61
2022/04/16 07:34:49;;;;;;;3.00;1.57;;;6.50;99.90;;;;;;5084081;28;20193;-60
2022/04/16 07:37:14;;;;;;;1.73;1.43;;;6.40;99.90;;;;;;5086517;28;20190;-60
2022/04/16 07:39:40;;;;;;;2.97;1.83;;;6.40;99.90;;;;;;5086106;28;20240;-60
2022/04/16 07:42:06;;;;;;;5.13;2.23;;;6.40;99.90;;;;;;5084088;28;20193;-59
2022/04/16 07:44:31;;;;;;;2.50;1.73;;;6.60;99.90;;;;;;5086171;28;20235;-60
2022/04/16 07:46:57;;;;;;;6.67;2.40;;;6.60;99.90;;;;;;5084147;28;20296;-60
2022/04/16 07:49:22;;;;;;;2.70;1.53;;;6.70;99.90;;;;;;5086670;28;20190;-61
2022/04/16 07:51:48;;;;;;;2.50;1.60;;;6.70;99.90;;;;;;5083913;28;20194;-62
2022/04/16 07:54:14;;;;;;;3.07;2.03;;;6.80;99.90;;;;;;5086080;28;20652;-61
2022/04/16 07:56:39;;;;;;;4.53;1.47;;;6.80;99.90;;;;;;5080369;28;20232;-61
2022/04/16 07:59:05;;;;;;;1.97;1.37;;;6.90;99.90;;;;;;5085225;28;20213;-61
2022/04/16 08:01:31;;;;;;;3.70;1.40;;;7.00;99.90;;;;;;5079123;28;20288;-61
2022/04/16 08:03:56;;;;;;;3.07;1.80;;;7.00;99.90;;;;;;5085896;28;20242;-62
2022/04/16 08:06:22;;;;;;;2.40;1.10;;;7.00;99.90;;;;;;5083887;28;20220;-62
2022/04/16 08:08:47;;;;;;;2.07;1.60;;;7.00;99.90;;;;;;5082872;28;20264;-60
2022/04/16 08:11:13;;;;;;;4.23;1.40;;;7.10;99.90;;;;;;5076546;28;20296;-61
2022/04/16 08:13:39;;;;;;;1.40;0.90;;;7.20;99.90;;;;;;5085806;28;20277;-61
2022/04/16 08:16:05;;;;;;;2.40;1.37;;;7.40;99.90;;;;;;5082900;28;20221;-61
2022/04/16 08:18:30;;;;;;;2.90;1.50;;;7.50;99.90;;;;;;5086325;28;20181;-61
2022/04/16 08:20:56;;;;;;;4.30;1.40;;;7.70;99.90;;;;;;5083764;28;20209;-62
2022/04/16 08:23:21;;;;;;;2.20;1.17;;;7.90;99.90;;;;;;5070937;28;20194;-60
2022/04/16 08:25:47;;;;;;;2.50;1.27;;;8.00;99.90;;;;;;5083553;28;20275;-61
2022/04/16 08:28:14;;;;;;;1.40;1.30;;;8.00;99.90;;;;;;5085573;28;20536;-60
2022/04/16 08:30:40;;;;;;;2.20;1.10;;;8.10;99.90;;;;;;5083492;28;20325;-61
2022/04/16 08:33:07;;;;;;;3.60;1.13;;;8.00;99.90;;;;;;5067374;28;20301;-60
2022/04/16 08:35:32;;;;;;;3.37;0.97;;;8.10;99.90;;;;;;5065573;28;21005;-60
2022/04/16 08:37:58;;;;;;;1.30;1.20;;;8.10;99.90;;;;;;5085708;28;20220;-61
2022/04/16 08:40:23;;;;;;;1.67;1.27;;;8.20;99.90;;;;;;5073527;28;20247;-60
2022/04/16 08:42:49;;;;;;;1.17;0.90;;;8.20;99.90;;;;;;5085536;28;20231;-60
2022/04/16 08:45:14;;;;;;;1.37;0.93;;;8.40;99.90;;;;;;5083490;28;20200;-61
2022/04/16 08:47:41;;;;;;;2.73;1.17;;;8.30;99.90;;;;;;5085321;28;20476;-61
2022/04/16 08:50:08;;;;;;;2.23;1.17;;;8.30;99.90;;;;;;5082752;28;20202;-60
2022/04/16 08:52:36;;;;;;;1.50;1.40;;;8.40;99.90;;;;;;5085374;28;20178;-61
2022/04/16 08:55:09;;;;;;;1.07;1.07;;;8.70;99.90;;;;;;5082986;28;20664;-61
2022/04/16 08:57:39;;;;;;;4.90;1.23;;;8.80;98.60;;;;;;5085236;28;20240;-61
2022/04/16 09:00:05;;;;;;;3.30;0.97;;;8.80;98.50;;;;;;5079742;28;20193;-61
2022/04/16 09:02:31;;;;;;;1.87;1.30;;;8.80;97.90;;;;;;5084562;28;20531;-61
2022/04/16 09:05:08;;;;;;;1.70;1.17;;;8.80;96.40;;;;;;5082910;28;20189;-61
2022/04/16 09:07:48;;;;;;;2.17;1.27;;;8.80;97.40;;;;;;5084911;28;20185;-62
2022/04/16 09:10:14;;;;;;;2.17;1.10;;;8.90;97.00;;;;;;5082962;28;20689;-62
2022/04/16 09:12:40;;;;;;;1.80;1.10;;;9.10;96.10;;;;;;5084672;28;20835;-62
2022/04/16 09:15:11;;;;;;;3.00;1.47;;;9.10;96.40;;;;;;5086123;28;20978;-61
2022/04/16 09:17:38;;;;;;;4.27;1.10;;;9.00;96.00;;;;;;5088453;28;20193;-62
2022/04/16 09:20:14;;;;;;;1.57;1.10;;;9.10;96.60;;;;;;5077641;28;20246;-62
2022/04/16 09:22:41;;;;;;;1.40;0.97;;;9.20;95.60;;;;;;5088887;28;20272;-61
2022/04/16 09:25:15;;;;;;;1.70;1.00;;;9.30;93.80;;;;;;5086420;28;20222;-62
2022/04/16 09:27:46;;;;;;;3.20;0.93;;;9.40;93.40;;;;;;5088872;28;20284;-61
2022/04/16 09:30:12;;;;;;;2.97;1.10;;;9.70;93.90;;;;;;5081713;28;20659;-62
2022/04/16 09:32:45;;;;;;;2.33;0.80;;;9.60;93.20;;;;;;5088482;28;20891;-61
2022/04/16 09:35:30;;;;;;;0.90;0.90;;;9.60;93.30;;;;;;5086409;28;20198;-61
2022/04/16 09:37:56;;;;;;;0.73;0.73;;;9.70;91.20;;;;;;5088670;28;20189;-62
2022/04/16 09:40:31;;;;;;;0.80;0.80;;;9.70;90.30;;;;;;5086132;28;20197;-61
2022/04/16 09:42:59;;;;;;;4.40;0.93;;;9.70;88.80;;;;;;5088726;28;20181;-65
2022/04/16 09:45:24;;;;;;;2.00;1.10;;;9.80;90.30;;;;;;5075668;28;20308;-62
2022/04/16 09:47:52;;;;;;;1.23;0.80;;;10.00;88.90;;;;;;5088491;28;20292;-62
2022/04/16 09:50:19;;;;;;;1.00;1.00;;;10.00;88.30;;;;;;5082374;28;20214;-61
2022/04/16 09:52:53;;;;;;;1.93;0.80;;;10.20;87.30;;;;;;5087632;28;20177;-62
2022/04/16 09:55:21;;;;;;;1.00;1.00;;;10.40;84.90;;;;;;5084212;28;20297;-62
2022/04/16 09:58:04;;;;;;;1.13;1.10;;;10.30;83.70;;;;;;5087632;28;20170;-63
2022/04/16 10:00:33;;;;;;;1.50;0.97;;;10.40;83.40;;;;;;5082827;28;20788;-62
2022/04/16 10:02:59;;;;;;;2.67;1.00;;;10.50;85.10;;;;;;5087903;28;20194;-62
2022/04/16 10:05:25;;;;;;;0.83;0.83;;;10.40;83.50;;;;;;5085287;28;20241;-62
2022/04/16 10:07:52;;;;;;;1.50;0.70;;;10.40;84.00;;;;;;5087111;28;20184;-63
2022/04/16 10:10:28;;;;;;;2.43;1.43;;;10.50;84.50;;;;;;5085105;28;20600;-63
2022/04/16 10:12:59;;;;;;;1.60;0.90;;;10.70;82.40;;;;;;5085118;28;20184;-61
2022/04/16 10:15:33;;;;;;;1.20;1.00;;;10.60;84.00;;;;;;5084214;28;20200;-61
2022/04/16 10:17:58;;;;;;;3.40;1.17;;;10.80;79.20;;;;;;5082583;28;20193;-62
2022/04/16 10:20:25;;;;;;;1.53;0.90;;;10.90;79.70;;;;;;5085139;28;20210;-68
2022/04/16 10:22:58;;;;;;;1.10;1.00;;;10.80;78.20;;;;;;5087004;28;20184;-70
2022/04/16 10:25:32;;;;;;;0.60;0.60;;;10.70;78.10;;;;;;5084750;28;20214;-68
2022/04/16 10:28:06;;;;;;;1.10;1.10;;;11.00;80.90;;;;;;5085278;28;20186;-68
2022/04/16 10:30:52;;;;;;;0.63;0.63;;;11.10;77.10;;;;;;5085645;28;20213;-68
2022/04/16 10:33:19;;;;;;;1.17;1.00;;;11.10;73.60;;;;;;5087443;28;20175;-68
2022/04/16 10:35:49;;;;;;;1.37;1.27;;;11.20;78.70;;;;;;5084566;28;20206;-70
2022/04/16 10:38:36;;;;;;;1.43;0.90;;;11.10;77.00;;;;;;5090928;28;20222;-71
2022/04/16 10:41:10;;;;;;;2.63;1.00;;;11.20;74.80;;;;;;5085061;28;20206;-68
2022/04/16 10:43:36;;;;;;;0.70;0.70;;;11.30;71.30;;;;;;5086220;28;20280;-69
2022/04/16 10:46:09;;;;;;;1.40;1.00;;;11.40;77.90;;;;;;5084408;28;20207;-68
2022/04/16 10:48:37;;;;;;;0.70;0.70;;;11.50;74.90;;;;;;5086825;28;20281;-73
2022/04/16 10:51:03;;;;;;;1.13;1.03;;;11.60;75.30;;;;;;5084897;28;20211;-76
2022/04/16 10:53:32;;;;;;;0.70;0.70;;;11.90;72.50;;;;;;5086655;28;20206;-70
2022/04/16 10:56:26;;;;;;;0.60;0.60;;;12.30;74.00;;;;;;5084783;28;20211;-69
2022/04/16 10:59:11;;;;;;;0.90;0.80;;;12.70;67.60;;;;;;5074417;28;20219;-70
2022/04/16 11:01:37;;;;;;;2.07;0.90;;;12.70;70.20;;;;;;5082307;28;20197;-71
2022/04/16 11:04:15;;;;;;;4.60;0.97;;;12.90;68.20;;;;;;5086767;28;20189;-68
2022/04/16 11:06:46;;;;;;;1.80;0.63;;;12.90;63.70;;;;;;5081274;28;20213;-76
2022/04/16 11:09:12;;;;;;;1.43;1.00;;;13.00;65.70;;;;;;5086325;28;20660;-67
2022/04/16 11:11:41;;;;;;;0.70;0.70;;;13.20;66.10;;;;;;5085022;28;20204;-67
2022/04/16 11:14:10;;;;;;;2.30;0.90;;;13.50;64.30;;;;;;5086528;28;20333;-72
2022/04/16 11:16:46;;;;;;;0.60;0.60;;;13.70;64.20;;;;;;5081928;28;20207;-68
2022/04/16 11:19:13;;;;;;;4.03;1.53;;;13.90;61.30;;;;;;5085766;28;20192;-76
2022/04/16 11:21:39;;;;;;;1.30;0.80;;;13.70;62.20;;;;;;5084559;28;20228;-70
2022/04/16 11:24:08;;;;;;;1.00;1.00;;;14.10;63.20;;;;;;5086295;28;20660;-69
2022/04/16 11:34:52;;;;;;;0.60;0.50;;;15.30;57.90;;;;;;5072359;28;20192;-68
2022/04/16 11:37:18;;;;;;;0.93;0.80;;;15.50;52.40;;;;;;5085687;28;20576;-68
2022/04/16 11:39:46;;;;;;;0.80;0.70;;;15.70;53.50;;;;;;5085970;28;20643;-67
2022/04/16 11:42:11;;;;;;;1.17;0.90;;;15.70;57.30;;;;;;5085391;28;20212;-69
2022/04/16 11:44:41;;;;;;;1.47;1.00;;;15.70;56.10;;;;;;5085627;28;20688;-69
2022/04/16 11:47:20;;;;;;;1.23;0.83;;;15.50;57.10;;;;;;5083794;28;20229;-69
2022/04/16 11:49:53;;;;;;;1.93;1.10;;;15.60;57.90;;;;;;5085658;28;20220;-69
2022/04/16 11:52:30;;;;;;;1.17;1.10;;;16.10;57.50;;;;;;5073748;28;20193;-69
2022/04/16 11:55:14;;;;;;;1.33;1.00;;;16.30;57.00;;;;;;5083665;28;20675;-68
2022/04/16 11:57:45;;;;;;;1.60;1.27;;;16.30;53.70;;;;;;5085478;28;20184;-70
2022/04/16 12:00:11;;;;;;;0.77;0.50;;;16.40;53.20;;;;;;5083222;28;20202;-68
2022/04/16 12:02:39;;;;;;;0.77;0.70;;;16.00;52.00;;;;;;5084173;28;20198;-69
2022/04/16 12:05:24;;;;;;;1.60;0.60;;;16.40;52.10;;;;;;5080846;28;20189;-67
2022/04/16 12:07:49;;;;;;;0.73;0.73;;;16.50;51.50;;;;;;5067913;28;20206;-69
2022/04/16 12:10:16;;;;;;;3.30;0.70;;;17.00;48.80;;;;;;5084322;28;20216;-70
2022/04/16 12:12:50;;;;;;;4.00;1.57;;;17.20;48.90;;;;;;5083946;28;20211;-71
2022/04/16 12:15:26;;;;;;;1.87;0.70;;;17.20;47.30;;;;;;5085251;28;20182;-70
2022/04/16 12:17:56;;;;;;;1.60;0.83;;;17.60;46.80;;;;;;5085903;28;20187;-69
2022/04/16 12:20:23;;;;;;;0.83;0.70;;;17.90;45.50;;;;;;5083751;28;20263;-69
2022/04/16 12:23:02;;;;;;;1.37;0.63;;;18.10;45.50;;;;;;5085794;28;20235;-69
2022/04/16 12:25:29;;;;;;;1.83;0.70;;;18.60;43.90;;;;;;5083737;28;20239;-70
2022/04/16 12:27:56;;;;;;;0.50;0.50;;;18.40;41.70;;;;;;5085579;28;20185;-71
2022/04/16 12:30:33;;;;;;;2.17;1.17;;;18.00;42.00;;;;;;5082947;28;20198;-70
2022/04/16 12:33:06;;;;;;;0.67;0.67;;;17.90;42.10;;;;;;5086150;28;20203;-68
2022/04/16 12:35:36;;;;;;;0.50;0.50;;;18.10;42.30;;;;;;5081696;28;20235;-71
2022/04/16 12:38:03;;;;;;;0.47;0.40;;;18.60;41.90;;;;;;5085792;28;20193;-69
2022/04/16 12:40:31;;;;;;;0.77;0.77;;;19.30;42.80;;;;;;5083136;28;20197;-70
2022/04/16 12:42:58;;;;;;;1.43;0.70;;;19.90;40.70;;;;;;5085682;28;20189;-69
2022/04/16 12:45:24;;;;;;;1.50;1.00;;;20.10;39.60;;;;;;5083170;28;20204;-69
2022/04/16 12:47:50;;;;;;;1.00;1.00;;;20.20;40.90;;;;;;5085553;28;20195;-70
2022/04/16 12:50:16;;;;;;;1.10;0.80;;;20.40;39.50;;;;;;5087134;28;20240;-70
2022/04/16 12:52:42;;;;;;;2.27;0.90;;;20.30;35.60;;;;;;5087805;28;20616;-70
2022/04/16 12:55:08;;;;;;;2.87;0.57;;;19.70;37.00;;;;;;5089771;28;20281;-69
2022/04/16 12:57:34;;;;;;;0.70;0.70;;;19.20;35.10;;;;;;5087592;28;20305;-70
2022/04/16 13:00:00;;;;;;;0.73;0.73;;;18.60;36.30;;;;;;5089173;28;20213;-68
2022/04/16 13:02:25;;;;;;;2.10;0.57;;;19.00;36.90;;;;;;5087381;28;20539;-70
2022/04/16 13:04:51;;;;;;;1.13;0.80;;;18.90;36.80;;;;;;5088952;28;20277;-70
2022/04/16 13:07:17;;;;;;;1.40;0.60;;;19.20;35.30;;;;;;5087426;28;20222;-69
2022/04/16 13:09:42;;;;;;;0.60;0.60;;;19.00;36.50;;;;;;5089228;28;20481;-69
2022/04/16 13:12:08;;;;;;;1.03;0.53;;;19.40;38.00;;;;;;5087213;28;20679;-69
2022/04/16 13:14:34;;;;;;;2.23;0.83;;;20.00;36.60;;;;;;5089110;28;20252;-69
2022/04/16 13:17:01;;;;;;;0.87;0.80;;;20.30;36.30;;;;;;5086819;28;20404;-70